Riga, Letland

3:19 AM EEST op 02 oktober 2014 (GMT +0300)
Baltic Container Terminal | Change Station
CLOSE
Current Station
Persoonlijk weerstation
Location: Rīga, RīGAS PILSēTA
Geometrische hoogte: 3 ft
Nabije weerstations

Hoogte 3 ft 57.01 °N, 24.10 °E | Updated 7 minutes ago

Fog
Mist
44.3 °F
Voelt als 40 °F
N
7.0
Wind Variabel Wind van ZO
Gusts 11.0 mijl/u

Vandaag
Hoog -- | Laag -- °F
--% Kans op neerslag
Gisteren
Hoog -- | Laag -- °F
Precip. -- inches
7:28 AM 6:56 PM
Eerste kwartier, 52% visible
Druk 30.51 inches
Zicht 5.0 mijlen
Wolken
Gevoelstemperatuur 40 °F
Dauwpunt 39 °F
Vochtigheid 80%
Neerslag 0.00 inches
Dikte sneeuw Niet beschikbaar.
UV Niet beschikbaar.
Pollen Niet beschikbaar.
Luchtkwaliteit Niet beschikbaar.
Flu Activity Niet beschikbaar.
METAR EVRA 012350Z 00000KT 8000 MIFG NSC 01/01 Q1033 R36/090070 NOSIG

More Conditions Fewer Conditions

Druk 30.51 inches
Zicht 5.0 mijlen
Wolken
Gevoelstemperatuur 40 °F
Dauwpunt 39 °F
Vochtigheid 80%
Neerslag 0.00 inches
Dikte sneeuw Niet beschikbaar.
UV Niet beschikbaar.
Pollen Niet beschikbaar.
Luchtkwaliteit Niet beschikbaar.
Flu Activity Niet beschikbaar.
METAR EVRA 012350Z 00000KT 8000 MIFG NSC 01/01 Q1033 R36/090070 NOSIG

More Conditions Fewer Conditions

10-Day Weather Forecast

Almanac

Astronomie

Oct. 02, 2014 Opkomst Ondergang
Werkelijke tijd 7:28 AM EEST 6:56 PM EEST
Burgerlijke schemering 6:50 AM EEST 7:34 PM EEST
Nautische schemering 6:06 AM EEST 8:18 PM EEST
Astronomische schemering 5:20 AM EEST 9:04 PM EEST
Maan 3:50 PM EEST Geen maanondergang
Golflengte van het zichtbare licht 12h 43m
Daglengte
11h 27m
Tomorrow will be 4m 47s shorter.
Eerste kwartier, 52% of the Moon is Illuminated
oktober 1
Eerste kwartier
oktober 8
Volle maan
oktober 15
Laatste kwartier
oktober 23
Nieuw
oktober 30
Eerste kwartier

Extremen gisteren

Country Highs Country Lows

Community

WunderPhotos

Upload Photos

1,758,097 foto’s ge-upload!

WunderBlogs® & News

Nearby

Luchtkwaliteit

Not available.

Dikte sneeuw

Not available.

Aardbevingen

Stad Distance Mag. Time & Date
No recent earthquake activity has been reported nearby.
Minimum magnitude displayed is 2.5.

Watertemperatuur langs de kust

Plaats Temperatuur
Geen meldingen van stations

Nabije weerstations